createdAt,value
2022-10-08T00:00:59.375Z,14.90
2022-10-08T00:03:31.383Z,14.90
2022-10-08T00:06:03.300Z,14.90
2022-10-08T00:08:37.796Z,14.90
2022-10-08T00:11:10.036Z,14.90
2022-10-08T00:13:43.305Z,14.90
2022-10-08T00:16:15.307Z,14.90
2022-10-08T00:18:47.103Z,14.90
2022-10-08T00:21:19.231Z,14.90
2022-10-08T00:23:53.057Z,14.90
2022-10-08T00:26:25.890Z,15.00
2022-10-08T00:28:57.417Z,15.00
2022-10-08T00:31:29.150Z,15.00
2022-10-08T00:34:00.870Z,15.00
2022-10-08T00:36:32.383Z,14.90
2022-10-08T00:39:06.696Z,14.90
2022-10-08T00:41:39.238Z,14.80
2022-10-08T00:44:38.900Z,14.80
2022-10-08T00:47:16.581Z,14.70
2022-10-08T00:49:46.590Z,14.70
2022-10-08T00:52:16.661Z,14.60
2022-10-08T00:54:50.125Z,14.50
2022-10-08T00:57:20.663Z,14.50
2022-10-08T00:59:50.718Z,14.50
2022-10-08T01:02:20.536Z,14.50
2022-10-08T01:04:51.050Z,14.50
2022-10-08T01:07:27.003Z,14.50
2022-10-08T01:10:08.129Z,14.60
2022-10-08T01:12:51.008Z,14.50
2022-10-08T01:15:27.643Z,14.50
2022-10-08T01:18:06.411Z,14.40
2022-10-08T01:20:53.914Z,14.40
2022-10-08T01:23:44.142Z,14.40
2022-10-08T01:26:46.190Z,14.40
2022-10-08T01:29:24.039Z,14.50
2022-10-08T01:31:57.571Z,14.50
2022-10-08T01:34:32.862Z,14.50
2022-10-08T01:37:03.935Z,14.60
2022-10-08T01:39:36.591Z,14.60
2022-10-08T01:42:10.173Z,14.60
2022-10-08T01:44:46.397Z,14.70
2022-10-08T01:47:20.742Z,14.70
2022-10-08T01:49:52.365Z,14.70
2022-10-08T01:52:26.884Z,14.70
2022-10-08T01:54:58.811Z,14.70
2022-10-08T01:57:30.628Z,14.70
2022-10-08T02:00:07.119Z,14.60
2022-10-08T02:02:36.898Z,14.50
2022-10-08T02:05:07.699Z,14.50
2022-10-08T02:07:41.344Z,14.50
2022-10-08T02:10:14.171Z,14.50
2022-10-08T02:12:45.547Z,14.50
2022-10-08T02:15:22.812Z,14.40
2022-10-08T02:18:02.018Z,14.40
2022-10-08T02:20:37.179Z,14.30
2022-10-08T02:23:25.719Z,14.30
2022-10-08T02:25:59.834Z,14.20
2022-10-08T02:28:34.385Z,14.20
2022-10-08T02:31:10.888Z,14.20
2022-10-08T02:33:46.709Z,14.30
2022-10-08T02:36:20.145Z,14.30
2022-10-08T02:38:55.097Z,14.30
2022-10-08T02:41:31.974Z,14.30
2022-10-08T02:44:06.576Z,14.30
2022-10-08T02:46:42.958Z,14.20
2022-10-08T02:49:18.221Z,14.20
2022-10-08T02:51:50.692Z,14.20
2022-10-08T02:54:23.490Z,14.10
2022-10-08T02:56:58.022Z,14.20
2022-10-08T02:59:28.260Z,14.20
2022-10-08T03:02:02.712Z,14.20
2022-10-08T03:04:36.937Z,14.20
2022-10-08T03:07:07.430Z,14.30
2022-10-08T03:09:40.220Z,14.40
2022-10-08T03:12:10.320Z,14.50
2022-10-08T03:14:43.465Z,14.50
2022-10-08T03:17:19.837Z,14.60
2022-10-08T03:19:49.617Z,14.60
2022-10-08T03:22:20.391Z,14.60
2022-10-08T03:24:53.697Z,14.60
2022-10-08T03:27:25.855Z,14.60
2022-10-08T03:29:57.354Z,14.40
2022-10-08T03:32:30.303Z,14.10
2022-10-08T03:35:00.189Z,13.80
2022-10-08T03:37:29.904Z,13.60
2022-10-08T03:39:59.597Z,13.60
2022-10-08T03:42:29.322Z,13.50
2022-10-08T03:45:01.316Z,13.50
2022-10-08T03:47:33.595Z,13.60
2022-10-08T03:50:03.347Z,13.50
2022-10-08T03:52:33.359Z,13.60
2022-10-08T03:55:03.190Z,13.70
2022-10-08T03:57:32.950Z,13.70
2022-10-08T04:00:02.722Z,13.70
2022-10-08T04:02:35.104Z,13.70
2022-10-08T04:05:04.845Z,13.70
2022-10-08T04:07:34.565Z,13.80
2022-10-08T04:10:04.275Z,13.90
2022-10-08T04:12:33.998Z,13.90
2022-10-08T04:15:03.693Z,13.90
2022-10-08T04:17:36.011Z,13.90
2022-10-08T04:20:05.963Z,14.00
2022-10-08T04:22:35.702Z,14.00
2022-10-08T04:25:05.526Z,14.00
2022-10-08T04:27:35.276Z,13.90
2022-10-08T04:30:04.989Z,13.90
2022-10-08T04:32:37.395Z,13.90
2022-10-08T04:35:07.941Z,13.80
2022-10-08T04:37:37.794Z,13.90
2022-10-08T04:40:08.307Z,13.90
2022-10-08T04:42:38.049Z,13.90
2022-10-08T04:45:08.688Z,13.90
2022-10-08T04:47:41.036Z,14.00
2022-10-08T04:50:11.677Z,14.00
2022-10-08T04:52:41.436Z,14.00
2022-10-08T04:55:12.425Z,14.00
2022-10-08T04:57:42.156Z,14.00
2022-10-08T05:00:18.148Z,13.90
2022-10-08T05:02:51.226Z,14.00
2022-10-08T05:05:21.584Z,14.00
2022-10-08T05:07:51.324Z,14.10
2022-10-08T05:10:21.024Z,14.10
2022-10-08T05:12:50.750Z,14.10
2022-10-08T05:15:20.655Z,14.10
2022-10-08T05:17:52.949Z,14.10
2022-10-08T05:20:22.991Z,14.00
2022-10-08T05:22:52.697Z,14.00
2022-10-08T05:25:22.445Z,14.00
2022-10-08T05:27:52.500Z,13.90
2022-10-08T05:30:22.264Z,13.90
2022-10-08T05:32:54.645Z,13.80
2022-10-08T05:35:24.347Z,13.80
2022-10-08T05:37:54.138Z,13.70
2022-10-08T05:40:24.321Z,13.70
2022-10-08T05:42:55.033Z,13.60
2022-10-08T05:45:24.893Z,13.60
2022-10-08T05:47:57.199Z,13.50
2022-10-08T05:50:26.889Z,13.50
2022-10-08T05:52:56.607Z,13.50
2022-10-08T05:55:27.499Z,13.50
2022-10-08T05:57:57.222Z,13.50
2022-10-08T06:00:26.924Z,13.50
2022-10-08T06:02:59.264Z,13.50
2022-10-08T06:05:29.044Z,13.60
2022-10-08T06:07:59.939Z,13.60
2022-10-08T06:10:31.954Z,13.60
2022-10-08T06:13:01.724Z,13.50
2022-10-08T06:15:31.442Z,13.50
2022-10-08T06:18:03.864Z,13.50
2022-10-08T06:20:33.668Z,13.60
2022-10-08T06:23:03.437Z,13.60
2022-10-08T06:25:33.153Z,13.70
2022-10-08T06:28:02.936Z,13.70
2022-10-08T06:30:32.781Z,13.70
2022-10-08T06:33:05.319Z,13.80
2022-10-08T06:35:35.021Z,13.80
2022-10-08T06:38:04.968Z,13.80
2022-10-08T06:40:38.964Z,13.90
2022-10-08T06:43:10.261Z,14.00
2022-10-08T06:45:42.064Z,14.00
2022-10-08T06:48:15.473Z,14.00
2022-10-08T06:50:45.401Z,14.10
2022-10-08T06:53:15.152Z,14.10
2022-10-08T06:55:45.002Z,14.20
2022-10-08T06:58:14.689Z,14.40
2022-10-08T07:00:44.493Z,14.40
2022-10-08T07:03:16.823Z,14.50
2022-10-08T07:05:46.549Z,14.50
2022-10-08T07:08:17.018Z,14.60
2022-10-08T07:10:47.026Z,14.70
2022-10-08T07:13:16.751Z,14.70
2022-10-08T07:15:46.457Z,14.80
2022-10-08T07:18:18.746Z,15.10
2022-10-08T07:20:58.244Z,15.10
2022-10-08T07:23:28.589Z,14.80
2022-10-08T07:26:00.128Z,14.90
2022-10-08T07:28:31.998Z,15.00
2022-10-08T07:31:06.140Z,15.10
2022-10-08T07:33:40.200Z,15.00
2022-10-08T07:36:12.098Z,15.20
2022-10-08T07:38:42.460Z,15.10
2022-10-08T07:41:14.243Z,15.40
2022-10-08T07:43:44.061Z,15.40
2022-10-08T07:46:14.795Z,15.50
2022-10-08T07:48:47.107Z,15.70
2022-10-08T07:51:19.323Z,15.70
2022-10-08T07:53:49.587Z,16.20
2022-10-08T07:56:21.731Z,16.10
2022-10-08T07:58:52.496Z,15.70
2022-10-08T08:01:28.314Z,15.80
2022-10-08T08:04:02.560Z,15.60
2022-10-08T08:06:34.034Z,15.90
2022-10-08T08:09:04.655Z,16.20
2022-10-08T08:11:34.463Z,15.90
2022-10-08T08:14:04.236Z,15.70
2022-10-08T08:16:34.148Z,15.60
2022-10-08T08:19:07.277Z,15.80
2022-10-08T08:21:39.119Z,16.00
2022-10-08T08:24:10.669Z,15.90
2022-10-08T08:26:42.302Z,15.80
2022-10-08T08:29:14.251Z,15.70
2022-10-08T08:31:46.273Z,16.10
2022-10-08T08:34:20.805Z,16.30
2022-10-08T08:36:53.594Z,16.50
2022-10-08T08:39:25.389Z,15.90
2022-10-08T08:42:26.878Z,16.00
2022-10-08T08:45:01.777Z,16.00
2022-10-08T08:47:36.764Z,15.90
2022-10-08T08:50:21.732Z,15.70
2022-10-08T08:52:51.537Z,15.70
2022-10-08T08:55:28.919Z,16.10
2022-10-08T08:58:04.379Z,16.30
2022-10-08T09:00:41.896Z,16.50
2022-10-08T09:03:22.941Z,16.10
2022-10-08T09:05:57.600Z,16.60
2022-10-08T09:08:32.665Z,16.40
2022-10-08T09:11:04.207Z,16.60
2022-10-08T09:13:39.611Z,17.00
2022-10-08T09:16:09.515Z,16.50
2022-10-08T09:18:40.471Z,16.50
2022-10-08T09:21:12.762Z,16.60
2022-10-08T09:23:42.491Z,16.70
2022-10-08T09:26:18.057Z,17.00
2022-10-08T09:28:49.972Z,16.60
2022-10-08T09:31:30.123Z,16.60
2022-10-08T09:34:07.628Z,16.50
2022-10-08T09:36:44.737Z,16.60
2022-10-08T09:39:21.048Z,16.60
2022-10-08T09:42:12.144Z,16.50
2022-10-08T09:44:43.528Z,16.50
2022-10-08T09:47:15.159Z,16.30
2022-10-08T09:49:49.801Z,16.90
2022-10-08T09:52:26.816Z,16.10
2022-10-08T09:55:00.841Z,16.60
2022-10-08T09:57:31.636Z,16.80
2022-10-08T10:00:03.130Z,16.80
2022-10-08T10:02:35.548Z,16.80
2022-10-08T10:05:08.070Z,16.90
2022-10-08T10:07:46.045Z,16.60
2022-10-08T10:10:20.824Z,16.90
2022-10-08T10:12:53.982Z,17.00
2022-10-08T10:15:27.675Z,16.80
2022-10-08T10:17:59.736Z,17.00
2022-10-08T10:20:33.160Z,17.00
2022-10-08T10:23:09.094Z,17.10
2022-10-08T10:25:42.725Z,17.30
2022-10-08T10:28:19.449Z,17.40
2022-10-08T10:30:56.477Z,17.50
2022-10-08T10:33:31.007Z,17.70
2022-10-08T10:36:04.455Z,18.10
2022-10-08T10:38:43.074Z,17.40
2022-10-08T10:41:20.099Z,17.10
2022-10-08T10:43:53.737Z,17.20
2022-10-08T10:46:34.649Z,17.80
2022-10-08T10:49:05.069Z,18.00
2022-10-08T10:52:06.447Z,17.30
2022-10-08T10:54:57.675Z,17.50
2022-10-08T10:57:41.792Z,17.70
2022-10-08T11:00:16.914Z,17.20
2022-10-08T11:02:54.635Z,17.30
2022-10-08T11:05:26.642Z,17.40
2022-10-08T11:08:20.840Z,17.10
2022-10-08T11:11:02.436Z,17.00
2022-10-08T11:13:46.505Z,17.50
2022-10-08T11:16:28.705Z,17.50
2022-10-08T11:19:00.424Z,17.70
2022-10-08T11:21:47.104Z,18.20
2022-10-08T11:24:32.377Z,17.70
2022-10-08T11:27:11.379Z,17.20
2022-10-08T11:29:46.841Z,17.40
2022-10-08T11:32:19.702Z,17.10
2022-10-08T11:34:54.402Z,17.20
2022-10-08T11:37:30.215Z,16.80
2022-10-08T11:40:10.137Z,16.90
2022-10-08T11:42:50.064Z,17.30
2022-10-08T11:45:34.943Z,17.50
2022-10-08T11:48:34.870Z,17.50
2022-10-08T11:51:33.839Z,17.10
2022-10-08T11:54:15.186Z,17.70
2022-10-08T11:56:47.896Z,17.40
2022-10-08T11:59:34.420Z,17.70
2022-10-08T12:02:06.438Z,17.10
2022-10-08T12:04:38.349Z,17.50
2022-10-08T12:07:20.557Z,16.90
2022-10-08T12:10:19.986Z,17.30
2022-10-08T12:13:06.851Z,17.50
2022-10-08T12:16:04.819Z,17.20
2022-10-08T12:18:46.124Z,17.30
2022-10-08T12:21:39.032Z,17.80
2022-10-08T12:24:44.790Z,17.30
2022-10-08T12:27:37.861Z,17.00
2022-10-08T12:30:11.022Z,17.20
2022-10-08T12:32:59.807Z,17.10
2022-10-08T12:35:32.793Z,17.40
2022-10-08T12:38:26.898Z,17.40
2022-10-08T12:41:07.593Z,17.30
2022-10-08T12:43:45.832Z,17.70
2022-10-08T12:46:25.713Z,17.40
2022-10-08T12:49:03.166Z,17.40
2022-10-08T12:51:44.032Z,17.40
2022-10-08T12:54:21.185Z,17.00
2022-10-08T12:56:52.196Z,16.80
2022-10-08T12:59:23.899Z,17.10
2022-10-08T13:01:54.501Z,17.40
2022-10-08T13:04:29.323Z,17.50
2022-10-08T13:06:59.371Z,17.00
2022-10-08T13:09:31.977Z,17.30
2022-10-08T13:12:04.095Z,17.30
2022-10-08T13:14:35.327Z,17.70
2022-10-08T13:17:05.852Z,17.60
2022-10-08T13:19:40.097Z,17.50
2022-10-08T13:22:10.592Z,17.30
2022-10-08T13:24:42.803Z,17.50
2022-10-08T13:27:26.212Z,17.80
2022-10-08T13:29:56.246Z,17.80
2022-10-08T13:32:28.293Z,17.90
2022-10-08T13:35:02.742Z,18.00
2022-10-08T13:37:36.274Z,18.00
2022-10-08T13:40:19.587Z,17.60
2022-10-08T13:42:52.334Z,17.30
2022-10-08T13:45:24.090Z,17.30
2022-10-08T13:47:54.862Z,17.40
2022-10-08T13:50:27.337Z,17.20
2022-10-08T13:52:59.671Z,17.00
2022-10-08T13:55:31.341Z,17.10
2022-10-08T13:58:02.924Z,17.40
2022-10-08T14:00:34.276Z,17.60
2022-10-08T14:03:04.437Z,17.90
2022-10-08T14:05:40.261Z,17.70
2022-10-08T14:08:16.251Z,17.90
2022-10-08T14:10:47.104Z,18.10
2022-10-08T14:13:18.405Z,17.80
2022-10-08T14:15:48.156Z,17.70
2022-10-08T14:18:17.923Z,17.50
2022-10-08T14:20:53.537Z,17.50
2022-10-08T14:23:23.372Z,17.60
2022-10-08T14:25:54.319Z,17.20
2022-10-08T14:28:24.102Z,17.20
2022-10-08T14:30:53.834Z,17.00
2022-10-08T14:33:23.535Z,17.20
2022-10-08T14:35:56.214Z,17.30
2022-10-08T14:38:26.006Z,17.10
2022-10-08T14:40:55.775Z,17.20
2022-10-08T14:43:27.692Z,17.00
2022-10-08T14:45:57.710Z,16.80
2022-10-08T14:48:27.740Z,17.00
2022-10-08T14:51:01.973Z,17.10
2022-10-08T14:53:31.567Z,17.00
2022-10-08T14:56:11.955Z,16.90
2022-10-08T14:58:43.079Z,16.60
2022-10-08T15:01:12.831Z,16.70
2022-10-08T15:03:45.639Z,16.70
2022-10-08T15:06:18.205Z,16.70
2022-10-08T15:08:48.278Z,16.80
2022-10-08T15:11:18.006Z,16.60
2022-10-08T15:13:47.711Z,16.50
2022-10-08T15:16:17.580Z,16.60
2022-10-08T15:18:47.393Z,16.70
2022-10-08T15:21:20.467Z,16.60
2022-10-08T15:23:50.439Z,16.60
2022-10-08T15:26:21.834Z,16.70
2022-10-08T15:28:53.615Z,16.70
2022-10-08T15:31:25.131Z,16.70
2022-10-08T15:33:59.527Z,16.60
2022-10-08T15:36:32.623Z,16.50
2022-10-08T15:39:04.693Z,16.50
2022-10-08T15:41:38.734Z,16.40
2022-10-08T15:44:12.999Z,16.50
2022-10-08T15:46:42.889Z,16.50
2022-10-08T15:49:12.665Z,16.50
2022-10-08T15:51:45.463Z,16.50
2022-10-08T15:54:15.205Z,16.50
2022-10-08T15:56:44.992Z,16.30
2022-10-08T15:59:14.759Z,16.20
2022-10-08T16:01:44.471Z,16.00
2022-10-08T16:04:15.171Z,16.00
2022-10-08T16:06:47.830Z,15.90
2022-10-08T16:09:19.119Z,15.70
2022-10-08T16:11:50.579Z,15.60
2022-10-08T16:14:22.106Z,15.50
2022-10-08T16:16:52.869Z,15.50
2022-10-08T16:19:24.429Z,15.40
2022-10-08T16:21:59.137Z,15.20
2022-10-08T16:24:29.121Z,15.20
2022-10-08T16:26:58.861Z,15.10
2022-10-08T16:29:28.775Z,15.00
2022-10-08T16:31:58.619Z,14.90
2022-10-08T16:34:31.002Z,14.90
2022-10-08T16:37:04.876Z,14.70
2022-10-08T16:39:34.639Z,14.70
2022-10-08T16:42:04.385Z,14.70
2022-10-08T16:44:34.145Z,14.60
2022-10-08T16:47:03.903Z,14.60
2022-10-08T16:49:33.691Z,14.50
2022-10-08T16:52:08.274Z,14.40
2022-10-08T16:54:38.718Z,14.40
2022-10-08T16:57:08.495Z,14.40
2022-10-08T16:59:38.276Z,14.30
2022-10-08T17:02:08.034Z,14.30
2022-10-08T17:04:39.665Z,14.30
2022-10-08T17:07:12.184Z,14.20
2022-10-08T17:09:41.908Z,14.10
2022-10-08T17:12:11.678Z,14.00
2022-10-08T17:14:41.421Z,14.00
2022-10-08T17:17:11.219Z,14.00
2022-10-08T17:19:41.202Z,13.90
2022-10-08T17:22:16.291Z,13.80
2022-10-08T17:24:46.034Z,13.80
2022-10-08T17:27:15.781Z,13.80
2022-10-08T17:29:45.594Z,13.80
2022-10-08T17:32:15.322Z,13.60
2022-10-08T17:34:45.085Z,13.60
2022-10-08T17:37:17.395Z,13.60
2022-10-08T17:39:47.567Z,13.50
2022-10-08T17:42:17.326Z,13.40
2022-10-08T17:44:47.082Z,13.40
2022-10-08T17:47:16.803Z,13.30
2022-10-08T17:49:46.515Z,13.30
2022-10-08T17:52:18.808Z,13.20
2022-10-08T17:54:48.534Z,13.20
2022-10-08T17:57:18.254Z,13.10
2022-10-08T17:59:47.948Z,13.10
2022-10-08T18:02:17.701Z,13.10
2022-10-08T18:04:47.479Z,13.10
2022-10-08T18:07:19.943Z,13.20
2022-10-08T18:09:50.050Z,13.20
2022-10-08T18:12:19.775Z,13.20
2022-10-08T18:14:50.640Z,13.10
2022-10-08T18:17:20.379Z,13.10
2022-10-08T18:19:50.102Z,13.00
2022-10-08T18:22:23.058Z,13.00
2022-10-08T18:24:52.854Z,13.00
2022-10-08T18:27:22.600Z,13.00
2022-10-08T18:29:52.320Z,13.00
2022-10-08T18:32:22.060Z,12.90
2022-10-08T18:34:52.138Z,12.90
2022-10-08T18:37:25.292Z,12.90
2022-10-08T18:39:55.166Z,12.90
2022-10-08T18:42:24.915Z,12.90
2022-10-08T18:44:54.729Z,12.90
2022-10-08T18:47:24.460Z,12.90
2022-10-08T18:49:54.190Z,12.90
2022-10-08T18:52:27.154Z,12.90
2022-10-08T18:55:00.169Z,12.90
2022-10-08T18:57:29.889Z,12.80
2022-10-08T18:59:59.636Z,12.80
2022-10-08T19:02:29.549Z,12.90
2022-10-08T19:05:00.936Z,12.80
2022-10-08T19:07:33.473Z,12.80
2022-10-08T19:10:03.219Z,12.80
2022-10-08T19:12:33.086Z,12.70
2022-10-08T19:15:02.786Z,12.60
2022-10-08T19:17:32.557Z,12.50
2022-10-08T19:20:02.315Z,12.50
2022-10-08T19:22:34.625Z,12.40
2022-10-08T19:25:04.487Z,12.40
2022-10-08T19:27:34.175Z,12.30
2022-10-08T19:30:03.893Z,12.30
2022-10-08T19:32:33.647Z,12.20
2022-10-08T19:35:03.495Z,12.10
2022-10-08T19:37:35.788Z,12.10
2022-10-08T19:40:06.181Z,12.00
2022-10-08T19:42:35.987Z,12.00
2022-10-08T19:45:05.953Z,11.90
2022-10-08T19:47:36.123Z,11.90
2022-10-08T19:50:06.057Z,11.80
2022-10-08T19:52:38.366Z,11.80
2022-10-08T19:55:09.568Z,11.80
2022-10-08T19:57:39.307Z,11.70
2022-10-08T20:00:10.517Z,11.70
2022-10-08T20:02:40.274Z,11.70
2022-10-08T20:05:11.318Z,11.70
2022-10-08T20:07:43.775Z,11.70
2022-10-08T20:10:17.695Z,11.70
2022-10-08T20:12:47.670Z,11.60
2022-10-08T20:15:17.749Z,11.60
2022-10-08T20:17:47.467Z,11.60
2022-10-08T20:20:32.470Z,11.50
2022-10-08T20:23:06.057Z,11.50
2022-10-08T20:25:35.904Z,11.50
2022-10-08T20:28:05.649Z,11.40
2022-10-08T20:30:35.452Z,11.30
2022-10-08T20:33:05.154Z,11.20
2022-10-08T20:35:38.497Z,11.10
2022-10-08T20:38:10.884Z,11.00
2022-10-08T20:40:42.215Z,10.90
2022-10-08T20:43:11.966Z,10.90
2022-10-08T20:45:41.751Z,10.90
2022-10-08T20:48:11.475Z,10.90
2022-10-08T20:50:41.206Z,10.90
2022-10-08T20:53:13.637Z,10.90
2022-10-08T20:55:43.458Z,10.80
2022-10-08T20:58:13.303Z,10.80
2022-10-08T21:00:43.076Z,10.80
2022-10-08T21:03:12.793Z,10.80
2022-10-08T21:05:45.684Z,10.80
2022-10-08T21:08:18.111Z,10.80
2022-10-08T21:10:47.863Z,10.70
2022-10-08T21:13:17.597Z,10.70
2022-10-08T21:15:47.335Z,10.70
2022-10-08T21:18:17.123Z,10.70
2022-10-08T21:20:48.774Z,10.60
2022-10-08T21:23:21.079Z,10.50
2022-10-08T21:25:50.891Z,10.40
2022-10-08T21:28:20.764Z,10.30
2022-10-08T21:30:55.753Z,10.20
2022-10-08T21:33:25.482Z,10.10
2022-10-08T21:35:58.122Z,10.10
2022-10-08T21:38:30.421Z,10.20
2022-10-08T21:41:01.225Z,10.20
2022-10-08T21:43:32.823Z,10.20
2022-10-08T21:46:03.633Z,10.20
2022-10-08T21:48:33.537Z,10.20
2022-10-08T21:51:05.103Z,10.20
2022-10-08T21:53:39.015Z,10.10
2022-10-08T21:56:10.625Z,10.10
2022-10-08T21:58:42.964Z,10.10
2022-10-08T22:01:24.959Z,10.10
2022-10-08T22:03:58.550Z,10.00
2022-10-08T22:06:29.753Z,10.00
2022-10-08T22:09:03.462Z,10.00
2022-10-08T22:11:33.229Z,9.90
2022-10-08T22:14:03.029Z,10.00
2022-10-08T22:16:32.831Z,10.10
2022-10-08T22:19:03.057Z,10.10
2022-10-08T22:21:32.869Z,10.10
2022-10-08T22:24:05.570Z,10.10
2022-10-08T22:26:37.550Z,10.20
2022-10-08T22:29:08.179Z,10.10
2022-10-08T22:31:38.378Z,10.10
2022-10-08T22:34:08.468Z,10.10
2022-10-08T22:36:42.035Z,10.10
2022-10-08T22:39:14.877Z,10.00
2022-10-08T22:41:44.661Z,9.80
2022-10-08T22:44:14.569Z,9.70
2022-10-08T22:46:44.331Z,9.70
2022-10-08T22:49:14.919Z,9.60
2022-10-08T22:51:44.734Z,9.60
2022-10-08T22:54:17.251Z,9.50
2022-10-08T22:56:46.997Z,9.50
2022-10-08T22:59:16.723Z,9.50
2022-10-08T23:01:46.476Z,9.50
2022-10-08T23:04:16.205Z,9.40
2022-10-08T23:06:45.923Z,9.50
2022-10-08T23:09:18.395Z,9.40
2022-10-08T23:11:48.181Z,9.40
2022-10-08T23:14:17.900Z,9.30
2022-10-08T23:16:47.725Z,9.20
2022-10-08T23:19:17.585Z,9.20
2022-10-08T23:21:47.328Z,9.10
2022-10-08T23:24:19.695Z,9.10
2022-10-08T23:26:49.873Z,9.10
2022-10-08T23:29:19.879Z,9.10
2022-10-08T23:31:49.830Z,9.10
2022-10-08T23:34:19.655Z,9.10
2022-10-08T23:36:49.377Z,9.10
2022-10-08T23:39:21.881Z,9.00
2022-10-08T23:41:51.608Z,9.00
2022-10-08T23:44:21.340Z,8.90
2022-10-08T23:46:51.119Z,8.90
2022-10-08T23:49:20.933Z,8.80
2022-10-08T23:51:50.671Z,8.80
2022-10-08T23:54:22.965Z,8.80
2022-10-08T23:56:52.730Z,8.80
2022-10-08T23:59:22.423Z,8.70
